Terminal Aerodrome Forecast
Issued by NWS Pocatello, ID

Home | Current Version | Previous Version | Text Only | Print | Product List | Glossary On
Versions: 1 2 3 4 5 6 7 8 9 10 11 12 13 14 15
000
FTUS45 KPIH 030800 AAA
TAFIDA
TAF AMD
KIDA 030849Z 0309/0406 21013KT P6SM VCSH SCT060 BKN100
     FM031000 36012G22KT 1SM -SN SCT004 BKN007
     FM031500 01011G21KT P6SM VCSH SCT020 BKN060
     FM040200 VRB06KT P6SM FEW080=

USA.gov is the U.S. government's official web portal to all federal, state and local government web resources and services.